createdAt,value
2019-06-01T00:00:58.000Z,3.47
2019-06-01T00:06:05.461Z,3.58
2019-06-01T00:08:40.184Z,3.45
2019-06-01T00:11:14.681Z,3.87
2019-06-01T00:13:47.821Z,3.80
2019-06-01T00:16:22.741Z,2.85
2019-06-01T00:18:56.045Z,3.10
2019-06-01T00:21:29.190Z,3.45
2019-06-01T00:24:02.565Z,3.33
2019-06-01T00:26:35.978Z,3.27
2019-06-01T00:29:09.186Z,3.33
2019-06-01T00:34:18.684Z,3.30
2019-06-01T00:36:52.042Z,3.30
2019-06-01T00:39:25.245Z,3.23
2019-06-01T00:41:58.486Z,3.22
2019-06-01T00:44:31.705Z,3.05
2019-06-01T00:47:04.843Z,3.40
2019-06-01T00:49:38.037Z,3.08
2019-06-01T00:52:11.181Z,9.40
2019-06-01T00:54:47.246Z,10.82
2019-06-01T00:57:22.223Z,8.48
2019-06-01T00:59:56.630Z,8.93
2019-06-01T01:02:29.774Z,10.40
2019-06-01T01:05:12.213Z,11.00
2019-06-01T01:07:46.583Z,10.48
2019-06-01T01:10:21.245Z,10.55
2019-06-01T01:12:56.192Z,10.65
2019-06-01T01:15:29.386Z,10.40
2019-06-01T01:18:02.809Z,10.43
2019-06-01T01:20:37.440Z,10.50
2019-06-01T01:23:10.539Z,10.40
2019-06-01T01:25:43.782Z,10.70
2019-06-01T01:28:16.872Z,11.50
2019-06-01T01:31:03.124Z,11.25
2019-06-01T01:33:25.038Z,10.78
2019-06-01T01:35:58.456Z,11.03
2019-06-01T01:38:33.169Z,11.05
2019-06-01T01:41:08.051Z,10.35
2019-06-01T01:43:41.428Z,10.93
2019-06-01T01:46:14.652Z,10.95
2019-06-01T01:48:47.801Z,10.08
2019-06-01T01:51:21.012Z,10.70
2019-06-01T01:53:54.726Z,10.15
2019-06-01T01:56:31.348Z,11.12
2019-06-01T01:59:04.672Z,11.30
2019-06-01T02:01:37.787Z,10.67
2019-06-01T02:04:11.065Z,10.23
2019-06-01T02:09:18.474Z,10.90
2019-06-01T02:11:51.518Z,11.25
2019-06-01T02:14:24.784Z,11.35
2019-06-01T02:16:58.159Z,12.23
2019-06-01T02:19:31.357Z,12.28
2019-06-01T02:22:04.743Z,12.53
2019-06-01T02:24:39.432Z,11.50
2019-06-01T02:27:12.632Z,11.22
2019-06-01T02:29:47.297Z,10.93
2019-06-01T02:32:20.899Z,10.15
2019-06-01T02:34:56.444Z,9.98
2019-06-01T02:37:31.366Z,9.90
2019-06-01T02:40:06.048Z,10.15
2019-06-01T02:42:39.269Z,10.48
2019-06-01T02:45:13.202Z,9.83
2019-06-01T02:47:48.753Z,9.00
2019-06-01T02:50:21.947Z,8.55
2019-06-01T02:52:55.560Z,9.95
2019-06-01T02:55:29.077Z,10.23
2019-06-01T02:58:02.510Z,10.45
2019-06-01T03:00:49.325Z,10.10
2019-06-01T03:03:22.521Z,9.95
2019-06-01T03:05:57.440Z,9.25
2019-06-01T03:08:31.005Z,9.68
2019-06-01T03:11:05.938Z,9.97
2019-06-01T03:13:41.208Z,8.03
2019-06-01T03:16:14.749Z,9.13
2019-06-01T03:18:47.944Z,8.25
2019-06-01T03:21:21.098Z,7.78
2019-06-01T03:23:54.381Z,7.50
2019-06-01T03:26:27.513Z,7.60
2019-06-01T03:29:03.612Z,7.25
2019-06-01T03:31:37.816Z,7.62
2019-06-01T03:34:11.557Z,7.30
2019-06-01T03:36:44.844Z,7.50
2019-06-01T03:39:17.956Z,7.30
2019-06-01T03:41:51.060Z,8.05
2019-06-01T03:44:24.459Z,8.15
2019-06-01T03:46:57.723Z,8.45
2019-06-01T03:49:32.104Z,8.00
2019-06-01T03:52:05.271Z,7.17
2019-06-01T03:54:41.004Z,9.13
2019-06-01T03:57:14.081Z,8.38
2019-06-01T03:59:48.947Z,8.48
2019-06-01T04:02:32.739Z,8.68
2019-06-01T04:05:01.046Z,9.15
2019-06-01T04:07:34.512Z,9.28
2019-06-01T04:10:08.060Z,9.03
2019-06-01T04:12:41.276Z,9.40
2019-06-01T04:15:16.815Z,9.50
2019-06-01T04:17:49.708Z,9.73
2019-06-01T04:20:22.774Z,9.03
2019-06-01T04:22:56.094Z,9.95
2019-06-01T04:25:30.747Z,9.10
2019-06-01T04:28:06.256Z,8.98
2019-06-01T04:30:39.565Z,9.35
2019-06-01T04:33:13.254Z,10.40
2019-06-01T04:35:46.395Z,11.10
2019-06-01T04:38:19.507Z,11.03
2019-06-01T04:40:52.804Z,10.38
2019-06-01T04:43:25.968Z,10.85
2019-06-01T04:45:59.202Z,10.90
2019-06-01T04:48:32.411Z,9.73
2019-06-01T04:51:08.795Z,9.83
2019-06-01T04:53:41.935Z,9.55
2019-06-01T04:56:15.293Z,9.83
2019-06-01T05:01:21.743Z,9.70
2019-06-01T05:03:54.926Z,9.50
2019-06-01T05:06:28.080Z,10.15
2019-06-01T05:09:01.400Z,9.33
2019-06-01T05:11:34.848Z,9.70
2019-06-01T05:14:09.572Z,9.70
2019-06-01T05:16:42.838Z,8.20
2019-06-01T05:19:16.664Z,8.05
2019-06-01T05:21:50.079Z,8.20
2019-06-01T05:24:23.428Z,7.50
2019-06-01T05:26:59.252Z,6.97
2019-06-01T05:29:32.575Z,7.00
2019-06-01T05:32:05.815Z,6.95
2019-06-01T05:34:38.970Z,5.83
2019-06-01T05:37:12.383Z,7.08
2019-06-01T05:39:45.485Z,7.20
2019-06-01T05:42:18.995Z,7.00
2019-06-01T05:44:52.301Z,6.08
2019-06-01T05:47:25.387Z,7.20
2019-06-01T05:49:58.514Z,7.87
2019-06-01T05:52:31.650Z,7.53
2019-06-01T05:55:06.511Z,6.85
2019-06-01T05:57:39.579Z,7.85
2019-06-01T06:00:13.207Z,7.37
2019-06-01T06:02:46.401Z,8.55
2019-06-01T06:05:19.523Z,6.33
2019-06-01T06:07:52.669Z,6.95
2019-06-01T06:10:25.825Z,6.35
2019-06-01T06:12:59.228Z,6.67
2019-06-01T06:15:32.414Z,6.33
2019-06-01T06:18:07.159Z,6.90
2019-06-01T06:20:40.484Z,6.35
2019-06-01T06:23:14.239Z,7.28
2019-06-01T06:25:47.493Z,6.72
2019-06-01T06:28:20.822Z,6.58
2019-06-01T06:30:54.010Z,6.13
2019-06-01T06:33:27.233Z,6.37
2019-06-01T06:36:01.551Z,6.37
2019-06-01T06:38:34.797Z,6.57
2019-06-01T06:41:08.066Z,6.33
2019-06-01T06:43:41.155Z,7.63
2019-06-01T06:46:16.658Z,7.20
2019-06-01T06:48:49.722Z,9.00
2019-06-01T06:51:23.362Z,7.92
2019-06-01T06:53:56.680Z,7.12
2019-06-01T06:56:29.788Z,8.60
2019-06-01T06:59:03.004Z,9.03
2019-06-01T07:01:36.151Z,8.53
2019-06-01T07:04:12.785Z,8.33
2019-06-01T07:06:44.222Z,7.87
2019-06-01T07:09:17.865Z,8.30
2019-06-01T07:11:52.252Z,8.93
2019-06-01T07:14:25.553Z,7.67
2019-06-01T07:17:00.256Z,8.90
2019-06-01T07:19:33.532Z,7.53
2019-06-01T07:22:06.822Z,7.42
2019-06-01T07:24:40.077Z,6.42
2019-06-01T07:27:13.207Z,6.67
2019-06-01T07:29:46.286Z,6.62
2019-06-01T07:32:20.218Z,7.37
2019-06-01T07:34:53.397Z,7.05
2019-06-01T07:37:26.555Z,6.97
2019-06-01T07:39:59.769Z,6.47
2019-06-01T07:42:33.203Z,7.05
2019-06-01T07:45:07.059Z,7.33
2019-06-01T07:47:40.337Z,5.83
2019-06-01T07:50:13.643Z,6.57
2019-06-01T07:52:46.884Z,5.73
2019-06-01T07:55:21.465Z,5.97
2019-06-01T07:57:56.572Z,5.40
2019-06-01T08:00:29.763Z,5.37
2019-06-01T08:03:02.982Z,9.63
2019-06-01T08:05:36.069Z,7.08
2019-06-01T08:08:09.218Z,5.40
2019-06-01T08:10:42.599Z,4.67
2019-06-01T08:13:15.819Z,4.95
2019-06-01T08:15:49.028Z,4.55
2019-06-01T08:18:23.925Z,4.17
2019-06-01T08:20:57.128Z,3.77
2019-06-01T08:23:30.396Z,4.28
2019-06-01T08:26:03.433Z,4.50
2019-06-01T08:28:36.563Z,5.17
2019-06-01T08:31:09.752Z,4.72
2019-06-01T08:33:43.021Z,4.58
2019-06-01T08:36:17.296Z,4.35
2019-06-01T08:38:50.429Z,3.67
2019-06-01T08:41:23.506Z,3.40
2019-06-01T08:43:56.805Z,3.02
2019-06-01T08:46:29.899Z,3.15
2019-06-01T08:49:04.684Z,2.95
2019-06-01T08:51:37.841Z,3.40
2019-06-01T08:54:14.016Z,2.42
2019-06-01T08:56:48.703Z,2.75
2019-06-01T08:59:21.841Z,3.42
2019-06-01T09:01:54.905Z,2.55
2019-06-01T09:04:28.816Z,1.90
2019-06-01T09:07:02.020Z,1.95
2019-06-01T09:09:36.167Z,1.95
2019-06-01T09:14:42.998Z,2.17
2019-06-01T09:17:18.658Z,2.60
2019-06-01T09:19:51.161Z,1.75
2019-06-01T09:22:25.786Z,2.00
2019-06-01T09:24:59.005Z,1.92
2019-06-01T09:27:33.950Z,1.67
2019-06-01T09:30:08.293Z,1.65
2019-06-01T09:32:42.784Z,2.30
2019-06-01T09:35:15.948Z,2.30
2019-06-01T09:37:49.159Z,2.08
2019-06-01T09:40:22.229Z,1.87
2019-06-01T09:45:27.888Z,2.10
2019-06-01T09:48:01.146Z,2.30
2019-06-01T09:50:35.554Z,2.83
2019-06-01T09:53:10.237Z,2.30
2019-06-01T09:55:45.009Z,2.10
2019-06-01T09:58:18.357Z,2.42
2019-06-01T10:00:51.701Z,2.35
2019-06-01T10:03:24.870Z,2.58
2019-06-01T10:06:01.983Z,1.90
2019-06-01T10:08:34.325Z,2.50
2019-06-01T10:11:07.747Z,2.52
2019-06-01T10:13:40.887Z,2.40
2019-06-01T10:16:14.059Z,1.90
2019-06-01T10:18:46.610Z,2.42
2019-06-01T10:21:36.154Z,2.00
2019-06-01T10:24:09.384Z,2.00
2019-06-01T10:26:42.455Z,1.98
2019-06-01T10:29:16.688Z,2.00
2019-06-01T10:31:49.961Z,2.17
2019-06-01T10:34:23.175Z,2.05
2019-06-01T10:36:56.330Z,2.33
2019-06-01T10:39:31.134Z,2.40
2019-06-01T10:42:05.731Z,2.17
2019-06-01T10:47:13.069Z,2.00
2019-06-01T10:52:18.598Z,2.22
2019-06-01T10:54:51.616Z,2.83
2019-06-01T10:57:24.862Z,2.22
2019-06-01T10:59:58.029Z,2.12
2019-06-01T11:02:32.542Z,2.50
2019-06-01T11:05:10.419Z,2.20
2019-06-01T11:07:43.747Z,2.40
2019-06-01T11:10:18.011Z,2.00
2019-06-01T11:12:51.253Z,2.60
2019-06-01T11:15:24.559Z,2.25
2019-06-01T11:17:59.002Z,2.45
2019-06-01T11:20:33.037Z,2.00
2019-06-01T11:23:06.416Z,2.22
2019-06-01T11:25:39.738Z,2.65
2019-06-01T11:28:13.098Z,2.72
2019-06-01T11:30:47.533Z,2.62
2019-06-01T11:33:21.799Z,2.50
2019-06-01T11:35:54.991Z,2.30
2019-06-01T11:38:28.152Z,2.25
2019-06-01T11:41:01.364Z,2.50
2019-06-01T11:43:34.687Z,1.95
2019-06-01T11:46:07.971Z,1.82
2019-06-01T11:48:41.452Z,2.92
2019-06-01T11:51:14.709Z,2.00
2019-06-01T11:53:49.708Z,2.20
2019-06-01T11:56:25.405Z,1.70
2019-06-01T11:58:58.602Z,2.08
2019-06-01T12:01:31.888Z,1.70
2019-06-01T12:04:05.266Z,2.40
2019-06-01T12:06:39.726Z,1.77
2019-06-01T12:09:12.934Z,1.75
2019-06-01T12:11:46.487Z,1.90
2019-06-01T12:14:19.701Z,1.60
2019-06-01T12:16:52.780Z,1.45
2019-06-01T12:19:25.958Z,1.17
2019-06-01T12:22:00.310Z,2.30
2019-06-01T12:24:34.600Z,2.00
2019-06-01T12:27:07.827Z,1.98
2019-06-01T12:29:41.483Z,1.57
2019-06-01T12:32:14.782Z,2.00
2019-06-01T12:34:48.460Z,2.00
2019-06-01T12:37:39.820Z,2.70
2019-06-01T12:39:58.904Z,2.10
2019-06-01T12:42:33.727Z,2.05
2019-06-01T12:45:08.835Z,1.60
2019-06-01T12:47:41.894Z,1.85
2019-06-01T12:50:15.419Z,1.50
2019-06-01T12:52:48.698Z,1.75
2019-06-01T12:55:21.887Z,1.95
2019-06-01T12:57:56.129Z,1.65
2019-06-01T13:00:30.534Z,1.47
2019-06-01T13:03:07.648Z,1.47
2019-06-01T13:05:39.766Z,1.60
2019-06-01T13:08:13.139Z,1.62
2019-06-01T13:10:47.208Z,2.00
2019-06-01T13:13:20.456Z,1.70
2019-06-01T13:15:53.617Z,2.00
2019-06-01T13:18:26.779Z,2.00
2019-06-01T13:20:59.904Z,2.08
2019-06-01T13:23:33.213Z,1.80
2019-06-01T13:26:09.916Z,1.90
2019-06-01T13:28:43.982Z,1.47
2019-06-01T13:31:19.376Z,1.82
2019-06-01T13:33:53.709Z,1.40
2019-06-01T13:36:27.937Z,1.70
2019-06-01T13:39:01.095Z,1.90
2019-06-01T13:41:37.125Z,2.33
2019-06-01T13:44:10.343Z,1.77
2019-06-01T13:46:43.654Z,1.95
2019-06-01T13:49:16.973Z,1.92
2019-06-01T13:51:50.465Z,2.10
2019-06-01T13:54:23.866Z,1.98
2019-06-01T13:56:58.996Z,1.67
2019-06-01T13:59:33.280Z,2.12
2019-06-01T14:02:08.157Z,2.02
2019-06-01T14:04:41.348Z,2.00
2019-06-01T14:07:14.598Z,2.02
2019-06-01T14:09:49.020Z,2.33
2019-06-01T14:12:22.243Z,1.90
2019-06-01T14:14:55.671Z,1.90
2019-06-01T14:17:28.849Z,1.75
2019-06-01T14:20:06.823Z,2.00
2019-06-01T14:22:41.678Z,2.12
2019-06-01T14:25:15.601Z,1.90
2019-06-01T14:27:50.396Z,2.22
2019-06-01T14:30:24.224Z,1.72
2019-06-01T14:33:01.206Z,1.90
2019-06-01T14:35:35.800Z,1.72
2019-06-01T14:38:09.403Z,2.12
2019-06-01T14:40:42.565Z,2.20
2019-06-01T14:43:15.813Z,2.50
2019-06-01T14:45:49.637Z,2.02
2019-06-01T14:48:23.104Z,2.42
2019-06-01T14:50:57.800Z,1.35
2019-06-01T14:53:31.098Z,2.40
2019-06-01T14:56:04.511Z,2.08
2019-06-01T14:58:37.946Z,2.08
2019-06-01T15:01:11.191Z,2.17
2019-06-01T15:03:44.492Z,2.15
2019-06-01T15:06:20.740Z,2.35
2019-06-01T15:09:13.172Z,1.70
2019-06-01T15:11:27.583Z,2.00
2019-06-01T15:14:00.675Z,2.40
2019-06-01T15:16:33.811Z,2.93
2019-06-01T15:19:07.010Z,3.30
2019-06-01T15:21:41.184Z,3.35
2019-06-01T15:24:14.390Z,3.87
2019-06-01T15:26:47.736Z,4.90
2019-06-01T15:29:21.049Z,5.22
2019-06-01T15:31:54.285Z,4.92
2019-06-01T15:34:27.433Z,4.37
2019-06-01T15:37:01.774Z,3.98
2019-06-01T15:39:35.419Z,4.08
2019-06-01T15:42:08.730Z,4.05
2019-06-01T15:44:42.044Z,3.77
2019-06-01T15:47:16.754Z,3.98
2019-06-01T15:49:50.002Z,3.22
2019-06-01T15:52:23.348Z,4.33
2019-06-01T15:54:56.541Z,4.00
2019-06-01T15:57:29.761Z,3.40
2019-06-01T16:00:03.727Z,4.00
2019-06-01T16:05:09.515Z,4.70
2019-06-01T16:07:42.705Z,4.83
2019-06-01T16:10:17.007Z,8.08
2019-06-01T16:12:51.378Z,7.85
2019-06-01T16:15:24.620Z,8.23
2019-06-01T16:20:30.973Z,7.00
2019-06-01T16:23:05.196Z,7.35
2019-06-01T16:25:38.719Z,6.67
2019-06-01T16:28:14.337Z,5.80
2019-06-01T16:30:47.552Z,5.90
2019-06-01T16:33:20.783Z,5.15
2019-06-01T16:35:56.912Z,5.70
2019-06-01T16:38:30.319Z,5.33
2019-06-01T16:41:03.596Z,5.55
2019-06-01T16:43:36.761Z,5.25
2019-06-01T16:48:45.268Z,4.97
2019-06-01T16:51:18.471Z,4.97
2019-06-01T16:53:53.299Z,5.60
2019-06-01T16:56:26.715Z,5.72
2019-06-01T16:59:00.196Z,6.15
2019-06-01T17:01:33.467Z,5.53
2019-06-01T17:04:06.714Z,5.90
2019-06-01T17:06:39.930Z,5.90
2019-06-01T17:09:14.365Z,5.87
2019-06-01T17:11:47.619Z,5.10
2019-06-01T17:14:20.972Z,5.23
2019-06-01T17:16:54.308Z,5.53
2019-06-01T17:19:27.681Z,4.90
2019-06-01T17:22:01.456Z,4.70
2019-06-01T17:24:34.759Z,4.62
2019-06-01T17:27:08.275Z,5.12
2019-06-01T17:29:46.618Z,5.40
2019-06-01T17:32:24.558Z,5.55
2019-06-01T17:34:54.842Z,5.00
2019-06-01T17:37:28.135Z,4.60
2019-06-01T17:40:02.524Z,4.50
2019-06-01T17:42:35.914Z,4.58
2019-06-01T17:45:09.617Z,4.57
2019-06-01T17:47:42.848Z,4.20
2019-06-01T17:50:18.250Z,4.40
2019-06-01T17:52:50.972Z,4.70
2019-06-01T17:55:32.005Z,4.55
2019-06-01T17:58:05.774Z,4.83
2019-06-01T18:00:42.103Z,4.25
2019-06-01T18:03:15.460Z,4.17
2019-06-01T18:05:48.870Z,4.87
2019-06-01T18:08:22.345Z,4.78
2019-06-01T18:10:55.615Z,4.57
2019-06-01T18:13:28.689Z,4.53
2019-06-01T18:16:03.002Z,4.92
2019-06-01T18:18:36.694Z,4.72
2019-06-01T18:21:10.404Z,5.33
2019-06-01T18:23:43.800Z,4.60
2019-06-01T18:26:16.914Z,4.65
2019-06-01T18:28:50.102Z,5.58
2019-06-01T18:31:23.353Z,5.67
2019-06-01T18:33:58.911Z,5.95
2019-06-01T18:36:32.187Z,6.30
2019-06-01T18:39:07.588Z,6.20
2019-06-01T18:41:40.980Z,6.70
2019-06-01T18:44:14.348Z,7.15
2019-06-01T18:46:47.615Z,7.57
2019-06-01T18:49:20.901Z,7.17
2019-06-01T18:51:54.094Z,7.80
2019-06-01T18:54:27.328Z,7.40
2019-06-01T18:57:09.647Z,7.00
2019-06-01T18:59:35.499Z,7.25
2019-06-01T19:02:08.673Z,6.73
2019-06-01T19:04:41.935Z,6.67
2019-06-01T19:07:17.538Z,5.90
2019-06-01T19:09:50.868Z,7.40
2019-06-01T19:12:24.550Z,8.00
2019-06-01T19:14:59.041Z,7.55
2019-06-01T19:17:32.150Z,8.80
2019-06-01T19:20:08.490Z,6.67
2019-06-01T19:22:41.734Z,8.70
2019-06-01T19:25:17.847Z,10.65
2019-06-01T19:27:51.055Z,12.60
2019-06-01T19:30:43.610Z,14.43
2019-06-01T19:33:19.173Z,13.28
2019-06-01T19:35:53.114Z,12.68
2019-06-01T19:38:26.492Z,11.18
2019-06-01T19:40:59.739Z,9.55
2019-06-01T19:43:32.878Z,11.83
2019-06-01T19:46:06.115Z,11.83
2019-06-01T19:48:39.280Z,11.55
2019-06-01T19:51:12.524Z,11.00
2019-06-01T19:53:45.765Z,10.97
2019-06-01T19:56:21.866Z,10.72
2019-06-01T19:58:55.624Z,8.88
2019-06-01T20:01:29.092Z,10.13
2019-06-01T20:04:02.486Z,11.93
2019-06-01T20:06:35.785Z,10.63
2019-06-01T20:09:09.176Z,11.12
2019-06-01T20:11:42.470Z,11.70
2019-06-01T20:14:16.435Z,9.60
2019-06-01T20:16:49.525Z,6.10
2019-06-01T20:21:56.104Z,3.55
2019-06-01T20:24:29.430Z,4.55
2019-06-01T20:27:02.770Z,3.40
2019-06-01T20:29:35.956Z,2.80
2019-06-01T20:32:09.262Z,2.72
2019-06-01T20:34:42.549Z,3.35
2019-06-01T20:37:15.936Z,3.33
2019-06-01T20:39:48.989Z,2.97
2019-06-01T20:42:31.746Z,3.45
2019-06-01T20:44:57.164Z,2.80
2019-06-01T20:47:30.540Z,3.70
2019-06-01T20:50:06.161Z,2.72
2019-06-01T20:52:39.364Z,3.40
2019-06-01T20:55:13.161Z,2.90
2019-06-01T20:57:46.569Z,2.60
2019-06-01T21:00:19.877Z,3.45
2019-06-01T21:02:53.063Z,2.47
2019-06-01T21:05:26.366Z,3.92
2019-06-01T21:07:59.636Z,3.03
2019-06-01T21:10:32.559Z,3.00
2019-06-01T21:13:08.163Z,2.65
2019-06-01T21:15:41.584Z,2.90
2019-06-01T21:18:16.157Z,3.17
2019-06-01T21:20:49.441Z,3.10
2019-06-01T21:23:23.092Z,3.10
2019-06-01T21:25:56.207Z,3.30
2019-06-01T21:28:29.588Z,3.00
2019-06-01T21:31:02.800Z,3.27
2019-06-01T21:33:36.039Z,2.85
2019-06-01T21:36:09.245Z,2.45
2019-06-01T21:38:42.544Z,2.77
2019-06-01T21:41:15.697Z,2.62
2019-06-01T21:43:49.017Z,2.75
2019-06-01T21:46:22.314Z,2.72
2019-06-01T21:48:55.545Z,2.85
2019-06-01T21:51:30.538Z,2.62
2019-06-01T21:54:04.708Z,3.10
2019-06-01T21:56:38.060Z,2.60
2019-06-01T21:59:11.184Z,2.83
2019-06-01T22:01:44.446Z,2.30
2019-06-01T22:04:18.683Z,2.22
2019-06-01T22:06:53.050Z,2.60
2019-06-01T22:09:27.420Z,2.05
2019-06-01T22:14:32.953Z,2.05
2019-06-01T22:17:06.306Z,2.35
2019-06-01T22:19:39.607Z,2.47
2019-06-01T22:22:12.868Z,2.10
2019-06-01T22:24:46.063Z,2.60
2019-06-01T22:27:20.088Z,2.02
2019-06-01T22:29:53.404Z,2.30
2019-06-01T22:32:29.991Z,2.35
2019-06-01T22:35:01.809Z,2.30
2019-06-01T22:37:35.103Z,2.30
2019-06-01T22:42:41.756Z,2.20
2019-06-01T22:45:15.093Z,2.35
2019-06-01T22:47:48.380Z,2.42
2019-06-01T22:50:22.710Z,2.42
2019-06-01T22:52:55.956Z,2.47
2019-06-01T22:55:29.406Z,2.22
2019-06-01T22:58:02.763Z,3.60
2019-06-01T23:00:35.884Z,2.02
2019-06-01T23:03:09.115Z,2.08
2019-06-01T23:05:42.305Z,2.33
2019-06-01T23:08:16.692Z,2.12
2019-06-01T23:10:49.761Z,2.05
2019-06-01T23:13:24.100Z,1.95
2019-06-01T23:18:29.898Z,2.10
2019-06-01T23:21:02.924Z,2.12
2019-06-01T23:23:37.749Z,2.00
2019-06-01T23:26:10.959Z,2.10
2019-06-01T23:28:45.353Z,2.10
2019-06-01T23:31:22.260Z,2.10
2019-06-01T23:33:55.533Z,2.20
2019-06-01T23:36:29.013Z,2.15
2019-06-01T23:39:02.297Z,1.92
2019-06-01T23:41:36.649Z,2.25
2019-06-01T23:46:43.931Z,2.47
2019-06-01T23:49:18.308Z,2.55
2019-06-01T23:51:51.505Z,2.15
2019-06-01T23:54:25.778Z,2.22
2019-06-01T23:56:58.896Z,2.08
2019-06-01T23:59:32.521Z,2.47
